Airfield :







YOU CAN JOIN US ON...

 
LOGIN :

Register | Disclaimer

   EN    FR    IT 

 









Legend :    VFR   Marginal VFR   IFR   Intensive IFR   Very Intensive IFR
Visi :
Ceiling :
>= 8 km
>= 3000ft
5 to 8 km
1000 to 3000 ft
1500m to 5 km
500 to 1000 ft
800 to 1500m
200 to 500 ft
< 800m
< 200 ft
Symbols :   Thunderstorms  Fog  Heavy snow  Heavy precipitations  Wind > 20 kt






- Airport Elevation : 199 ft
- IATA code : YRQ


CYRQ - Trois-Rivières

CURRENT METAR :
  • 141100Z AUTO 24007KT 9SM BKN011 OVC016 18/17 A2969 RMK SLP057 DENSITY ALT 900FT

EXPIRED METARs :
  • 141031Z AUTO 24004KT 220V290 9SM BKN011 BKN060 OVC190 18/17 A2967 RMK SLP051 DENSITY ALT 900FT
  • 141000Z AUTO 23011G17KT 9SM FEW013 SCT170 BKN190 BKN240 18/17 A2966 RMK SLP047 DENSITY ALT 900FT
  • 140946Z AUTO 22012G18KT 9SM SCT013 BKN190 BKN240 18/17 A2966 RMK SLP046 DENSITY ALT 900FT
  • 140900Z AUTO 22013G19KT 9SM BKN015 OVC020 18/17 A2965 RMK SLP043 DENSITY ALT 1000FT
  • 140800Z AUTO 23012KT 9SM OVC017 18/17 A2964 RMK SLP037 DENSITY ALT 1000FT
  • 140741Z AUTO 23012G20KT 9SM BKN019 BKN240 18/17 A2964 RMK SLP038 DENSITY ALT 1000FT
  • 140700Z AUTO 22012G17KT 9SM FEW019 BKN240 18/17 A2963 RMK SLP035 DENSITY ALT 1000FT

TAF TAF CYRQ
Valid from the 14 at 08:00 until the 14 at 20:00 UTC


140742Z 1408/1420 21012G22KT P6SM SCT020 BKN240
TEMPO 1408/1409 BKN020 BKN240
FM140900 22012G22KT P6SM BKN015
TEMPO 1409/1414 BKN025
FM141400 26012G22KT P6SM -SHRA BKN030
FM141700 27010KT P6SM BKN050
TEMPO 1417/1420 P6SM -SHRA RMK FCST BASED ON AUTO OBS. NXT FCST BY 141400Z
CZUL FIR / North America



MET'MAP, your aeronautical weather chart ! - Copyright ORBIFLY December 2007 - Disclaimer

ORBIFLY MET'MAP TEAM :

Programming & Development : Alexandra Zaïnal
Original concept : Baudouin d'Aumeries
Technical & hardware support : Manuel Goepfert
Assistance : Marc-Olivier Méhu




SOURCES & CREDITS :

   NOAA